Time;durP1;ratioP1;P1;durP2;ratioP2;P2;SDS_P1;SDS_P2;PMS_P1;PMS_P2;Temp;Humidity;BMP_temperature;BMP_pressure;BME280_temperature;BME280_humidity;BME280_pressure;Samples;Min_cycle;Max_cycle;Signal;HPM_P1;HPM_P2
2021/12/22 00:02:14;;;;;;;33.85;13.10;;;;;;;20.27;14.32;98967.09;5000454;28;20462;-80
2021/12/22 00:04:45;;;;;;;32.85;13.48;;;;;;;20.31;14.18;98967.91;5001627;28;20433;-80
2021/12/22 00:07:12;;;;;;;32.53;13.25;;;;;;;20.04;14.37;98975.66;5009310;28;20049;-80
2021/12/22 00:09:38;;;;;;;29.80;13.43;;;;;;;20.07;14.52;98974.09;5007525;28;20489;-79
2021/12/22 00:12:05;;;;;;;32.78;12.65;;;;;;;20.09;14.41;98971.72;5013531;28;20052;-79
2021/12/22 00:14:31;;;;;;;29.10;12.55;;;;;;;20.70;13.96;98966.19;5007283;28;20034;-79
2021/12/22 00:16:57;;;;;;;22.90;10.25;;;;;;;20.49;14.08;98978.00;5009129;28;20045;-79
2021/12/22 00:19:24;;;;;;;30.38;13.93;;;;;;;20.34;14.19;98972.72;5012192;28;20034;-79
2021/12/22 00:21:50;;;;;;;27.63;12.32;;;;;;;20.87;13.92;98970.25;5012883;28;20482;-79
2021/12/22 00:24:16;;;;;;;33.65;13.57;;;;;;;20.64;13.83;98976.13;5009438;28;20503;-79
2021/12/22 00:26:42;;;;;;;25.65;11.85;;;;;;;20.62;13.97;98981.28;5020400;28;20033;-79
2021/12/22 00:29:09;;;;;;;31.95;12.93;;;;;;;20.47;14.20;98974.00;5022807;28;20061;-79
2021/12/22 00:31:42;;;;;;;29.67;12.45;;;;;;;20.96;13.66;98987.44;5004819;28;20044;-79
2021/12/22 00:34:16;;;;;;;28.70;11.63;;;;;;;21.55;13.19;98992.53;4993892;28;20045;-79
2021/12/22 00:36:43;;;;;;;30.75;13.07;;;;;;;21.31;13.21;98993.22;5004473;28;20116;-79
2021/12/22 00:39:10;;;;;;;30.13;13.32;;;;;;;21.19;13.54;98991.59;5012486;28;20030;-79
2021/12/22 00:41:36;;;;;;;28.42;12.40;;;;;;;21.38;13.38;98992.47;5011230;28;20045;-79
2021/12/22 00:44:02;;;;;;;32.85;12.90;;;;;;;21.30;13.35;99000.03;5007397;28;20026;-79
2021/12/22 00:46:28;;;;;;;30.23;12.50;;;;;;;21.17;13.53;98993.97;4999156;28;20042;-79
2021/12/22 00:48:54;;;;;;;30.85;11.68;;;;;;;21.25;13.42;99004.00;5012428;28;20088;-79
2021/12/22 00:51:20;;;;;;;28.35;12.00;;;;;;;21.43;13.21;98998.47;5002814;28;20375;-79
2021/12/22 00:53:46;;;;;;;29.67;13.10;;;;;;;21.27;13.39;98993.22;5010689;28;20030;-79
2021/12/22 00:56:13;;;;;;;29.52;11.65;;;;;;;21.64;13.22;99000.50;5010832;28;20056;-79
2021/12/22 00:58:39;;;;;;;24.20;10.88;;;;;;;21.96;13.10;98998.63;5008803;28;20096;-79
2021/12/22 01:01:05;;;;;;;25.75;11.80;;;;;;;22.15;12.98;98989.06;5001471;28;20104;-79
2021/12/22 01:03:34;;;;;;;28.95;12.43;;;;;;;22.30;12.93;98991.44;4998896;28;20072;-79
2021/12/22 01:06:01;;;;;;;26.80;11.43;;;;;;;22.40;12.87;98993.44;4998402;28;20047;-79
2021/12/22 01:08:27;;;;;;;26.25;11.02;;;;;;;22.06;12.88;98991.44;5016680;28;20080;-79
2021/12/22 01:10:53;;;;;;;26.73;11.43;;;;;;;21.94;12.94;98996.22;5007946;28;20164;-79
2021/12/22 01:13:20;;;;;;;30.40;12.55;;;;;;;21.44;13.34;99010.44;5008973;28;20045;-79
2021/12/22 01:15:46;;;;;;;24.52;10.60;;;;;;;20.38;14.29;99002.25;5006124;28;20046;-79
2021/12/22 01:18:16;;;;;;;24.30;11.35;;;;;;;20.42;14.28;99005.84;5002268;28;20479;-79
2021/12/22 01:23:23;;;;;;;26.05;10.57;;;;;;;21.19;13.58;99010.34;5002101;28;20050;-80
2021/12/22 01:25:49;;;;;;;25.50;10.82;;;;;;;21.41;13.38;99011.22;5003306;28;20031;-79
2021/12/22 01:28:23;;;;;;;21.92;10.60;;;;;;;21.62;13.21;99014.09;5012782;28;20041;-80
2021/12/22 01:30:50;;;;;;;26.70;10.95;;;;;;;22.08;12.84;99025.41;5007326;28;20033;-80
2021/12/22 01:33:16;;;;;;;22.23;9.18;;;;;;;22.27;12.83;99016.63;5012053;28;20038;-80
2021/12/22 01:35:43;;;;;;;26.38;10.25;;;;;;;22.26;12.81;99018.63;5014372;28;20021;-80
2021/12/22 01:38:10;;;;;;;27.58;10.52;;;;;;;22.20;12.45;99020.22;5014892;28;20026;-79
2021/12/22 01:40:41;;;;;;;22.77;10.60;;;;;;;22.07;12.71;99029.41;5016816;28;20025;-79
2021/12/22 01:43:08;;;;;;;27.67;9.95;;;;;;;22.01;12.88;99023.38;5014751;28;20030;-79
2021/12/22 01:46:19;;;;;;;25.55;9.10;;;;;;;22.22;12.68;99020.59;5016483;28;20053;-79
2021/12/22 01:49:12;;;;;;;22.50;10.70;;;;;;;22.26;12.65;99015.84;5010652;28;20049;-79
2021/12/22 01:51:54;;;;;;;25.58;10.68;;;;;;;22.45;12.48;99017.44;4997646;28;20140;-80
2021/12/22 01:54:33;;;;;;;21.83;9.77;;;;;;;22.54;12.64;99015.81;5007580;28;20027;-80
2021/12/22 01:57:02;;;;;;;21.33;9.90;;;;;;;22.50;12.61;99020.59;4997027;28;20121;-80
2021/12/22 01:59:29;;;;;;;24.52;9.95;;;;;;;22.23;12.76;99019.44;5006503;28;20026;-79
2021/12/22 02:01:55;;;;;;;23.45;9.70;;;;;;;22.16;12.97;99015.81;5005226;28;20369;-79
2021/12/22 02:04:21;;;;;;;26.88;9.52;;;;;;;21.30;13.50;99016.78;5008853;28;20582;-79
2021/12/22 02:06:49;;;;;;;23.40;10.00;;;;;;;20.22;14.56;99032.41;5007893;28;20100;-79
2021/12/22 02:09:28;;;;;;;23.27;9.70;;;;;;;20.48;14.34;99017.47;5012210;28;20417;-79
2021/12/22 02:11:54;;;;;;;19.25;8.27;;;;;;;21.11;13.89;99017.91;5010757;28;20394;-78
2021/12/22 02:14:20;;;;;;;30.67;11.55;;;;;;;21.57;13.35;99012.47;5007404;28;20426;-79
2021/12/22 02:16:46;;;;;;;27.25;11.55;;;;;;;21.43;13.50;99015.22;5003176;28;20054;-79
2021/12/22 02:19:13;;;;;;;25.20;10.38;;;;;;;21.62;13.34;99017.69;5009462;28;20450;-79
2021/12/22 02:21:46;;;;;;;24.40;8.90;;;;;;;21.90;13.24;99015.00;5011000;28;20056;-79
2021/12/22 02:24:13;;;;;;;27.60;11.38;;;;;;;22.11;12.89;99010.63;5000523;28;20035;-79
2021/12/22 02:26:47;;;;;;;21.15;10.10;;;;;;;22.13;13.04;99006.22;4998686;28;20037;-79
2021/12/22 02:29:23;;;;;;;24.13;10.25;;;;;;;22.30;12.90;99008.25;5006260;28;20105;-79
2021/12/22 02:32:06;;;;;;;24.85;10.50;;;;;;;22.32;12.85;99010.63;5002792;28;20035;-79
2021/12/22 02:34:40;;;;;;;21.85;10.38;;;;;;;22.56;12.68;99013.44;5006566;28;20038;-79
2021/12/22 02:37:11;;;;;;;26.83;10.40;;;;;;;22.72;12.73;99009.41;5004883;28;20509;-79
2021/12/22 02:39:43;;;;;;;23.25;10.48;;;;;;;22.73;12.71;99011.84;5005790;28;20422;-79
2021/12/22 02:42:11;;;;;;;27.60;11.02;;;;;;;22.51;12.66;99013.03;4998746;28;20088;-79
2021/12/22 02:44:38;;;;;;;23.42;9.65;;;;;;;22.43;12.72;99003.00;5013257;28;20120;-79
2021/12/22 02:47:21;;;;;;;23.25;9.98;;;;;;;22.40;12.93;99009.44;5012506;28;20026;-79
2021/12/22 02:49:48;;;;;;;20.77;9.68;;;;;;;22.43;12.83;99011.41;5013957;28;20065;-79
2021/12/22 02:52:16;;;;;;;25.73;9.95;;;;;;;22.44;12.58;99005.44;5013113;28;20076;-79
2021/12/22 02:54:55;;;;;;;25.30;9.18;;;;;;;22.61;12.76;99001.84;5013689;28;20474;-79
2021/12/22 02:57:28;;;;;;;22.15;10.32;;;;;;;22.61;12.62;99004.63;5010722;28;20041;-79
2021/12/22 03:02:59;;;;;;;22.73;9.35;;;;;;;22.52;12.47;99003.44;5005559;28;20056;-79
2021/12/22 03:05:28;;;;;;;21.67;8.55;;;;;;;22.55;12.50;99011.81;5009283;28;20133;-78
2021/12/22 03:07:54;;;;;;;19.83;8.23;;;;;;;22.62;12.33;99014.63;5006104;28;20490;-79
2021/12/22 03:10:21;;;;;;;15.90;8.30;;;;;;;22.44;12.42;99018.63;5009107;28;20390;-79
2021/12/22 03:12:55;;;;;;;22.23;9.55;;;;;;;21.49;13.16;99018.44;5002477;28;20081;-79
2021/12/22 03:15:21;;;;;;;20.98;9.75;;;;;;;20.61;13.66;99013.97;5014391;28;20108;-79
2021/12/22 03:17:48;;;;;;;23.80;9.77;;;;;;;20.21;13.93;99010.44;5012870;28;20065;-79
2021/12/22 03:20:15;;;;;;;22.08;9.65;;;;;;;19.71;14.63;99014.75;5010852;28;20382;-79
2021/12/22 03:22:44;;;;;;;18.67;9.25;;;;;;;20.15;14.22;99015.56;4998175;28;20034;-79
2021/12/22 03:25:16;;;;;;;19.75;8.35;;;;;;;20.80;13.78;99010.09;5003236;28;20363;-79
2021/12/22 03:27:48;;;;;;;18.35;8.25;;;;;;;21.22;13.32;99007.56;5014835;28;20038;-78
2021/12/22 03:30:17;;;;;;;18.00;8.38;;;;;;;21.42;13.03;99012.84;5006702;28;20033;-79
2021/12/22 03:32:44;;;;;;;20.13;8.77;;;;;;;21.36;12.96;99012.41;5011357;28;20034;-79
2021/12/22 03:35:16;;;;;;;18.75;8.30;;;;;;;20.55;13.59;99007.16;5005387;28;20042;-79
2021/12/22 03:37:43;;;;;;;23.45;9.80;;;;;;;19.76;14.03;99009.63;5007206;28;20029;-79
2021/12/22 03:40:09;;;;;;;21.83;9.05;;;;;;;19.84;14.29;99005.72;5012606;28;20041;-79
2021/12/22 03:42:35;;;;;;;20.55;9.38;;;;;;;19.96;13.98;99004.63;5013402;28;20042;-79
2021/12/22 03:45:01;;;;;;;20.40;9.32;;;;;;;19.86;14.12;99005.34;4999612;28;20038;-79
2021/12/22 03:47:28;;;;;;;21.42;9.50;;;;;;;19.03;14.78;99015.09;5014578;28;20389;-79
2021/12/22 03:49:54;;;;;;;24.50;9.88;;;;;;;19.40;14.49;99015.97;5012451;28;20033;-79
2021/12/22 03:52:20;;;;;;;25.15;10.30;;;;;;;18.86;15.02;99019.22;5002375;28;20038;-79
2021/12/22 03:54:46;;;;;;;20.33;8.82;;;;;;;18.78;15.32;99025.06;5012188;28;20108;-79
2021/12/22 03:57:12;;;;;;;21.90;9.13;;;;;;;19.46;14.50;99025.63;5006363;28;20062;-79
2021/12/22 03:59:38;;;;;;;18.50;7.90;;;;;;;18.95;15.00;99028.09;5010420;28;22688;-79
2021/12/22 04:02:05;;;;;;;22.92;9.50;;;;;;;19.17;14.99;99024.44;4996404;28;20486;-79
2021/12/22 04:04:31;;;;;;;19.60;8.50;;;;;;;19.59;14.82;99018.59;5013311;28;20077;-79
2021/12/22 04:06:57;;;;;;;16.60;6.88;;;;;;;19.12;15.00;99019.19;5007292;28;20050;-79
2021/12/22 04:09:27;;;;;;;17.33;7.78;;;;;;;19.14;15.00;99024.38;5012889;28;20030;-79
2021/12/22 04:11:54;;;;;;;20.75;8.02;;;;;;;18.96;15.37;99021.38;5001713;28;20120;-79
2021/12/22 04:14:20;;;;;;;19.98;8.70;;;;;;;19.60;14.97;99023.00;5002697;28;20084;-79
2021/12/22 04:16:46;;;;;;;29.40;11.70;;;;;;;19.66;14.85;99021.47;5010115;28;20559;-79
2021/12/22 04:19:12;;;;;;;28.98;12.35;;;;;;;19.55;14.72;99017.75;5011692;28;20080;-79
2021/12/22 04:21:38;;;;;;;22.60;9.57;;;;;;;19.24;15.02;99015.38;5011635;28;20033;-79
2021/12/22 04:24:06;;;;;;;23.85;9.95;;;;;;;19.56;14.84;99016.56;5003729;28;20112;-79
2021/12/22 04:26:33;;;;;;;35.58;13.25;;;;;;;19.72;14.55;99024.72;5004754;28;20081;-79
2021/12/22 04:29:00;;;;;;;26.20;8.68;;;;;;;19.71;14.83;99023.09;5007745;28;20096;-79
2021/12/22 04:31:26;;;;;;;26.23;10.80;;;;;;;19.35;14.89;99024.63;5010873;28;20398;-79
2021/12/22 04:33:52;;;;;;;16.88;7.53;;;;;;;19.73;14.77;99029.91;5006882;28;20080;-79
2021/12/22 04:36:18;;;;;;;22.50;7.38;;;;;;;19.56;15.01;99033.28;5007087;28;20394;-79
2021/12/22 04:38:44;;;;;;;23.58;9.75;;;;;;;19.32;15.25;99028.97;5004651;28;20030;-79
2021/12/22 04:41:10;;;;;;;18.17;7.32;;;;;;;19.16;15.49;99038.75;5006725;28;20033;-79
2021/12/22 04:43:37;;;;;;;14.23;6.47;;;;;;;19.30;15.36;99030.53;5011531;28;20153;-79
2021/12/22 04:46:03;;;;;;;19.60;8.23;;;;;;;19.56;15.22;99036.06;5007530;28;20073;-79
2021/12/22 04:48:31;;;;;;;22.90;9.65;;;;;;;19.86;14.98;99042.38;5009315;28;20176;-79
2021/12/22 04:50:57;;;;;;;23.23;9.90;;;;;;;20.24;14.67;99034.78;5005046;28;20034;-79
2021/12/22 04:53:27;;;;;;;21.45;9.10;;;;;;;20.27;14.71;99034.84;5006913;28;20034;-79
2021/12/22 04:55:53;;;;;;;16.25;8.30;;;;;;;19.64;15.51;99040.53;5010839;28;20025;-79
2021/12/22 04:58:19;;;;;;;22.42;11.20;;;;;;;19.03;16.02;99037.34;5011240;28;20030;-79
2021/12/22 05:00:45;;;;;;;15.73;7.72;;;;;;;19.37;15.99;99032.66;5008432;28;20486;-80
2021/12/22 05:03:11;;;;;;;18.98;8.68;;;;;;;19.31;15.92;99029.38;5000733;28;20437;-79
2021/12/22 05:05:37;;;;;;;19.70;8.50;;;;;;;19.88;15.58;99028.84;5006398;28;20041;-79
2021/12/22 05:08:04;;;;;;;23.02;10.82;;;;;;;19.56;15.90;99035.25;5008696;28;20026;-79
2021/12/22 05:10:30;;;;;;;16.02;8.18;;;;;;;19.51;15.86;99030.03;5003906;28;20069;-79
2021/12/22 05:12:57;;;;;;;19.90;8.82;;;;;;;18.56;17.04;99032.28;5006253;28;20076;-79
2021/12/22 05:15:25;;;;;;;16.33;7.80;;;;;;;19.14;16.43;99030.75;5007486;28;20057;-79
2021/12/22 05:20:22;;;;;;;23.63;9.73;;;;;;;18.35;17.01;99038.28;5008853;28;20112;-79
2021/12/22 05:22:48;;;;;;;13.93;5.78;;;;;;;18.09;17.29;99045.78;5009079;28;20026;-79
2021/12/22 05:25:15;;;;;;;20.80;7.97;;;;;;;18.17;17.52;99048.31;4999967;28;20034;-79
2021/12/22 05:27:41;;;;;;;17.00;8.48;;;;;;;19.01;16.72;99048.88;5001826;28;20054;-79
2021/12/22 05:30:10;;;;;;;15.43;7.63;;;;;;;19.53;16.20;99049.97;5003952;28;20041;-79
2021/12/22 05:32:36;;;;;;;19.35;8.52;;;;;;;19.80;15.95;99049.47;5009667;28;20038;-79
2021/12/22 05:35:07;;;;;;;25.10;9.13;;;;;;;19.21;16.42;99052.31;5005123;28;20038;-79
2021/12/22 05:37:34;;;;;;;18.52;8.50;;;;;;;19.54;16.22;99052.34;5002827;28;20401;-78
2021/12/22 05:40:00;;;;;;;18.77;7.57;;;;;;;19.99;15.69;99051.25;5010203;28;20052;-79
2021/12/22 05:42:27;;;;;;;22.98;8.82;;;;;;;20.06;15.85;99050.53;5008848;28;20034;-79
2021/12/22 05:44:54;;;;;;;23.92;9.57;;;;;;;20.37;15.50;99052.84;5004591;28;20131;-79
2021/12/22 05:47:20;;;;;;;24.38;8.68;;;;;;;20.44;15.49;99055.69;5007095;28;20030;-79
2021/12/22 05:49:48;;;;;;;16.70;8.15;;;;;;;20.75;15.16;99057.13;5011439;28;20038;-80
2021/12/22 05:52:14;;;;;;;16.00;7.90;;;;;;;20.97;15.00;99056.88;5003313;28;20041;-79
2021/12/22 05:54:40;;;;;;;19.73;8.50;;;;;;;20.88;15.04;99059.22;5007285;28;20141;-80
2021/12/22 05:57:07;;;;;;;25.80;10.30;;;;;;;21.45;14.67;99068.72;5012688;28;20064;-80
2021/12/22 05:59:33;;;;;;;23.80;11.18;;;;;;;21.36;14.61;99057.09;5011343;28;20031;-80
2021/12/22 06:01:59;;;;;;;22.50;9.07;;;;;;;21.31;14.52;99069.44;5008238;28;20084;-80
2021/12/22 06:04:25;;;;;;;18.85;8.65;;;;;;;21.39;14.64;99075.88;5007087;28;20061;-80
2021/12/22 06:06:51;;;;;;;19.83;8.90;;;;;;;20.98;15.05;99082.81;5008319;28;20045;-81
2021/12/22 06:09:17;;;;;;;25.55;11.70;;;;;;;19.20;16.70;99084.13;5022103;28;20042;-80
2021/12/22 06:11:43;;;;;;;18.25;8.10;;;;;;;17.75;18.29;99089.22;5004426;28;20061;-80
2021/12/22 06:14:09;;;;;;;22.55;9.10;;;;;;;18.39;17.84;99099.53;5009244;28;20414;-81
2021/12/22 06:16:35;;;;;;;23.13;10.35;;;;;;;18.86;17.37;99090.75;5006907;28;20378;-82
2021/12/22 06:19:04;;;;;;;26.75;10.60;;;;;;;19.15;17.00;99082.47;5004946;28;20095;-82
2021/12/22 06:21:31;;;;;;;23.55;11.25;;;;;;;19.01;17.14;99095.38;5001834;28;20169;-82
2021/12/22 06:23:57;;;;;;;21.60;9.63;;;;;;;19.41;16.72;99098.34;5004270;28;20035;-80
2021/12/22 06:26:23;;;;;;;23.48;10.50;;;;;;;19.33;16.70;99102.19;5006541;28;20034;-78
2021/12/22 06:28:50;;;;;;;26.02;11.75;;;;;;;18.50;17.58;99115.25;5009102;28;20393;-79
2021/12/22 06:31:17;;;;;;;26.40;11.50;;;;;;;18.24;17.96;99120.72;5005437;28;20053;-81
2021/12/22 06:33:43;;;;;;;30.55;12.38;;;;;;;18.11;18.20;99119.25;4999922;28;20042;-79
2021/12/22 06:36:10;;;;;;;32.92;14.15;;;;;;;17.55;18.61;99121.72;5010782;28;20448;-79
2021/12/22 06:38:38;;;;;;;32.80;15.00;;;;;;;18.31;17.94;99120.84;5004891;28;20061;-79
2021/12/22 06:41:04;;;;;;;35.10;15.05;;;;;;;18.36;17.83;99123.31;5008838;28;20064;-79
2021/12/22 06:43:30;;;;;;;35.63;14.73;;;;;;;18.31;17.72;99128.38;5012699;28;20397;-79
2021/12/22 06:45:57;;;;;;;25.88;12.55;;;;;;;18.40;17.87;99138.06;5009148;28;20038;-79
2021/12/22 06:48:23;;;;;;;41.35;17.55;;;;;;;18.51;17.71;99127.97;5011934;28;20045;-78
2021/12/22 06:50:49;;;;;;;36.47;17.13;;;;;;;18.48;17.76;99137.03;5011818;28;20172;-79
2021/12/22 06:53:15;;;;;;;38.22;16.48;;;;;;;18.61;17.61;99137.66;5004808;28;20030;-79
2021/12/22 06:55:41;;;;;;;32.55;15.32;;;;;;;18.78;17.41;99147.50;5013947;28;20030;-79
2021/12/22 06:58:07;;;;;;;29.20;13.57;;;;;;;19.09;17.00;99144.41;5012407;28;20045;-79
2021/12/22 07:00:35;;;;;;;31.80;15.23;;;;;;;19.17;17.07;99148.88;5007753;28;20037;-79
2021/12/22 07:03:04;;;;;;;31.45;13.27;;;;;;;18.86;17.23;99144.44;5007307;28;20040;-79
2021/12/22 07:05:31;;;;;;;36.67;16.88;;;;;;;19.32;16.88;99147.94;5009772;28;20046;-80
2021/12/22 07:07:57;;;;;;;34.15;15.48;;;;;;;19.99;16.29;99146.84;4999945;28;20030;-79
2021/12/22 07:10:23;;;;;;;40.63;16.13;;;;;;;20.31;15.87;99152.78;5013820;28;20034;-79
2021/12/22 07:12:49;;;;;;;31.67;14.07;;;;;;;20.54;15.69;99152.59;5015505;28;20537;-79
2021/12/22 07:15:17;;;;;;;36.78;15.73;;;;;;;20.56;15.76;99155.84;5015191;28;20046;-79
2021/12/22 07:17:47;;;;;;;27.83;12.95;;;;;;;20.52;15.58;99160.56;5013528;28;20045;-79
2021/12/22 07:20:14;;;;;;;34.85;14.38;;;;;;;20.13;16.05;99156.53;5010607;28;20034;-79
2021/12/22 07:22:40;;;;;;;35.05;15.50;;;;;;;20.84;15.41;99160.88;5004874;28;20029;-80
2021/12/22 07:25:08;;;;;;;31.80;14.15;;;;;;;20.89;15.40;99166.88;5004439;28;20030;-79
2021/12/22 07:27:34;;;;;;;38.05;17.08;;;;;;;20.41;15.75;99168.03;5008687;28;20397;-79
2021/12/22 07:30:01;;;;;;;36.83;16.95;;;;;;;20.46;15.88;99181.63;5010463;28;20085;-79
2021/12/22 07:32:27;;;;;;;37.78;16.05;;;;;;;20.95;15.52;99168.13;5014888;28;20038;-79
2021/12/22 07:35:07;;;;;;;31.83;15.43;;;;;;;21.16;15.32;99173.09;5011639;28;20030;-79
2021/12/22 07:37:42;;;;;;;43.00;16.75;;;;;;;21.01;15.43;99174.16;4998264;28;20077;-79
2021/12/22 07:40:12;;;;;;;34.63;15.32;;;;;;;20.98;15.44;99172.94;5009295;28;20072;-80
2021/12/22 07:42:38;;;;;;;45.88;20.75;;;;;;;20.28;15.96;99175.84;5009231;28;20038;-80
2021/12/22 07:45:06;;;;;;;37.33;17.25;;;;;;;20.74;15.65;99179.13;5009447;28;20092;-79
2021/12/22 07:47:32;;;;;;;47.63;20.05;;;;;;;20.90;15.55;99185.25;5010409;28;20374;-80
2021/12/22 07:49:58;;;;;;;41.60;16.23;;;;;;;20.50;15.94;99188.84;5007420;28;20068;-80
2021/12/22 07:52:27;;;;;;;37.85;17.55;;;;;;;20.60;16.11;99195.72;5006841;28;20461;-79
2021/12/22 07:54:54;;;;;;;42.78;17.73;;;;;;;20.75;15.82;99188.31;5011906;28;20030;-80
2021/12/22 07:57:20;;;;;;;36.78;16.30;;;;;;;20.22;16.25;99190.53;5012865;28;20099;-80
2021/12/22 07:59:46;;;;;;;41.22;16.73;;;;;;;20.16;16.29;99195.63;5006109;28;20065;-80
2021/12/22 08:02:13;;;;;;;38.60;17.77;;;;;;;20.40;16.35;99197.09;5007812;28;20442;-79
2021/12/22 08:04:40;;;;;;;35.03;17.20;;;;;;;20.61;16.08;99188.94;5009870;28;20034;-79
2021/12/22 08:07:06;;;;;;;35.28;13.70;;;;;;;19.43;17.03;99207.41;5003592;28;20053;-79
2021/12/22 08:09:33;;;;;;;42.85;20.70;;;;;;;19.78;16.83;99202.31;5009523;28;20041;-80
2021/12/22 08:12:05;;;;;;;36.42;16.27;;;;;;;20.35;16.42;99203.81;5008316;28;20053;-80
2021/12/22 08:14:36;;;;;;;36.53;17.73;;;;;;;20.80;16.00;99197.09;5008836;28;20060;-80
2021/12/22 08:17:03;;;;;;;31.65;15.05;;;;;;;21.44;15.64;99198.44;5008782;28;20387;-80
2021/12/22 08:19:29;;;;;;;32.75;15.48;;;;;;;21.31;15.35;99208.31;5008711;28;20030;-79
2021/12/22 08:21:56;;;;;;;41.67;18.48;;;;;;;20.29;16.42;99199.78;5004032;28;20037;-80
2021/12/22 08:24:22;;;;;;;37.80;17.40;;;;;;;20.37;16.42;99204.28;5009163;28;20194;-80
2021/12/22 08:26:49;;;;;;;39.40;18.60;;;;;;;20.62;16.18;99204.50;5000708;28;20068;-80
2021/12/22 08:29:15;;;;;;;38.83;15.85;;;;;;;20.27;16.38;99207.72;5006430;28;20498;-80
2021/12/22 08:31:41;;;;;;;33.70;16.90;;;;;;;20.48;16.48;99204.38;5006476;28;20470;-79
2021/12/22 08:34:09;;;;;;;44.15;19.83;;;;;;;20.75;16.07;99203.03;5010004;28;20034;-80
2021/12/22 08:39:20;;;;;;;41.10;17.92;;;;;;;20.40;16.28;99209.06;5007968;28;20040;-79
2021/12/22 08:41:48;;;;;;;42.97;17.75;;;;;;;20.51;16.54;99211.97;5006904;28;20105;-80
2021/12/22 08:44:17;;;;;;;35.45;16.23;;;;;;;20.05;16.87;99214.19;5006751;28;20053;-80
2021/12/22 08:46:49;;;;;;;37.72;17.73;;;;;;;20.80;16.40;99215.84;5004836;28;20028;-79
2021/12/22 08:49:16;;;;;;;37.45;16.63;;;;;;;20.57;16.35;99216.81;5008320;28;20026;-80
2021/12/22 08:51:42;;;;;;;38.92;15.95;;;;;;;20.55;16.42;99215.59;5002271;28;20489;-80
2021/12/22 08:54:09;;;;;;;34.80;15.60;;;;;;;20.33;16.63;99225.72;5010302;28;20026;-79
2021/12/22 08:56:37;;;;;;;38.15;18.88;;;;;;;20.55;16.40;99218.38;5003514;28;20038;-80
2021/12/22 08:59:06;;;;;;;39.92;19.88;;;;;;;19.45;17.33;99224.53;5004006;28;20026;-79
2021/12/22 09:01:32;;;;;;;39.75;18.40;;;;;;;20.38;16.84;99219.00;5007027;28;20034;-79
2021/12/22 09:03:58;;;;;;;38.88;18.27;;;;;;;20.98;16.16;99223.19;5008364;28;20161;-79
2021/12/22 09:06:25;;;;;;;32.97;16.10;;;;;;;21.67;15.64;99226.94;5010110;28;20486;-78
2021/12/22 09:08:52;;;;;;;42.97;19.73;;;;;;;22.01;15.04;99219.13;5010274;28;20063;-80
2021/12/22 09:11:19;;;;;;;43.65;20.02;;;;;;;21.51;15.46;99220.84;5008958;28;20030;-80
2021/12/22 09:13:45;;;;;;;37.08;18.55;;;;;;;21.82;15.46;99223.00;5011531;28;20030;-79
2021/12/22 09:16:11;;;;;;;37.85;15.25;;;;;;;21.61;15.36;99227.69;5012834;28;20058;-79
2021/12/22 09:18:38;;;;;;;32.92;16.65;;;;;;;21.82;15.28;99225.81;5012002;28;20113;-79
2021/12/22 09:21:06;;;;;;;42.63;19.05;;;;;;;21.37;15.54;99231.13;5000030;28;20088;-79
2021/12/22 09:23:32;;;;;;;38.90;18.88;;;;;;;20.40;16.43;99244.50;5016775;28;20123;-79
2021/12/22 09:25:59;;;;;;;35.88;17.48;;;;;;;20.30;16.72;99237.66;5008733;28;20029;-79
2021/12/22 09:28:25;;;;;;;39.50;20.48;;;;;;;20.58;16.32;99232.38;5010763;28;20153;-79
2021/12/22 09:30:51;;;;;;;32.85;16.45;;;;;;;20.98;15.96;99234.34;5008425;28;20046;-79
2021/12/22 09:33:18;;;;;;;37.78;17.73;;;;;;;21.37;15.46;99236.69;5010209;28;20557;-77
2021/12/22 09:35:48;;;;;;;36.38;17.08;;;;;;;21.69;15.30;99237.72;5013741;28;20037;-79
2021/12/22 09:38:14;;;;;;;32.60;15.57;;;;;;;21.78;14.90;99227.78;5016124;28;20030;-79
2021/12/22 09:40:42;;;;;;;36.15;15.57;;;;;;;21.35;15.33;99237.88;5029195;28;20065;-79
2021/12/22 09:43:08;;;;;;;29.25;14.27;;;;;;;20.97;15.59;99235.56;5010182;28;20084;-79
2021/12/22 09:45:41;;;;;;;30.05;14.95;;;;;;;21.18;15.56;99232.97;5013701;28;20466;-79
2021/12/22 09:53:25;;;;;;;40.25;17.40;;;;;;;21.55;15.41;99226.44;5005447;28;20038;-79
2021/12/22 09:55:52;;;;;;;33.58;16.25;;;;;;;21.04;15.76;99230.06;5008951;28;20034;-79
2021/12/22 09:58:19;;;;;;;43.65;19.33;;;;;;;20.75;15.96;99227.38;4996928;28;20026;-80
2021/12/22 10:00:46;;;;;;;35.33;18.08;;;;;;;20.80;15.83;99227.81;5012129;28;20481;-80
2021/12/22 10:03:12;;;;;;;35.55;16.35;;;;;;;20.58;15.91;99229.56;5011089;28;20038;-79
2021/12/22 10:05:40;;;;;;;40.22;19.50;;;;;;;20.25;16.14;99221.25;5014962;28;20042;-80
2021/12/22 10:08:07;;;;;;;36.85;17.85;;;;;;;19.66;16.50;99238.78;5015045;28;20045;-80
2021/12/22 10:10:39;;;;;;;30.40;14.65;;;;;;;19.53;16.72;99231.00;5001375;28;20446;-80
2021/12/22 10:13:08;;;;;;;34.72;17.77;;;;;;;19.98;16.24;99239.19;5009841;28;20029;-80
2021/12/22 10:15:35;;;;;;;33.17;15.75;;;;;;;20.65;15.67;99231.66;5013211;28;20030;-80
2021/12/22 10:18:19;;;;;;;31.63;14.20;;;;;;;20.97;15.33;99227.19;5010645;28;20034;-79
2021/12/22 10:20:48;;;;;;;30.38;14.77;;;;;;;21.14;14.86;99236.94;5012065;28;20042;-79
2021/12/22 10:23:25;;;;;;;34.33;15.80;;;;;;;20.52;15.27;99227.53;5012285;28;20037;-79
2021/12/22 10:25:59;;;;;;;26.88;12.63;;;;;;;20.27;15.48;99232.03;5012106;28;20053;-80
2021/12/22 10:28:29;;;;;;;27.50;12.95;;;;;;;20.72;15.10;99226.16;5011281;28;20042;-79
2021/12/22 10:30:58;;;;;;;26.45;12.70;;;;;;;21.03;15.14;99228.41;5011386;28;20049;-80
2021/12/22 10:33:27;;;;;;;27.98;12.65;;;;;;;21.28;14.94;99221.06;5011531;28;20072;-80
2021/12/22 10:36:00;;;;;;;27.42;13.65;;;;;;;21.19;14.94;99225.41;5011251;28;20089;-80
2021/12/22 10:38:31;;;;;;;28.23;13.23;;;;;;;21.05;15.06;99230.88;5011910;28;20034;-80
2021/12/22 10:41:07;;;;;;;23.83;10.90;;;;;;;20.97;14.78;99216.00;5010547;28;20457;-79
2021/12/22 10:43:40;;;;;;;25.58;11.32;;;;;;;20.61;14.96;99228.81;5014546;28;20120;-79
2021/12/22 10:46:06;;;;;;;19.45;9.68;;;;;;;20.18;15.25;99223.94;4995869;28;20117;-79
2021/12/22 10:51:32;;;;;;;25.33;10.52;;;;;;;20.64;15.16;99213.31;5007946;28;20048;-80
2021/12/22 10:54:00;;;;;;;24.80;10.88;;;;;;;20.51;15.22;99217.56;4994882;28;20125;-79
2021/12/22 10:56:29;;;;;;;27.08;11.63;;;;;;;20.67;15.12;99218.13;4995261;28;20034;-78
2021/12/22 10:59:06;;;;;;;19.60;10.63;;;;;;;20.00;15.82;99214.53;4995963;28;20034;-80
2021/12/22 11:01:35;;;;;;;20.77;10.68;;;;;;;20.39;15.91;99213.06;4994185;28;20114;-80
2021/12/22 11:04:04;;;;;;;26.48;11.57;;;;;;;20.65;15.75;99209.34;5003288;28;20042;-81
2021/12/22 11:06:34;;;;;;;31.38;13.55;;;;;;;21.39;15.41;99214.75;5009609;28;20034;-79
2021/12/22 11:09:14;;;;;;;28.15;12.93;;;;;;;21.28;15.32;99220.28;5012217;28;20087;-79
2021/12/22 11:11:44;;;;;;;32.13;15.13;;;;;;;21.38;14.95;99210.38;5004377;28;20046;-79
2021/12/22 11:14:19;;;;;;;25.83;12.75;;;;;;;21.38;15.06;99211.16;4996273;28;20092;-80
2021/12/22 11:16:53;;;;;;;28.70;14.82;;;;;;;21.74;14.98;99210.19;5002925;28;20508;-79
2021/12/22 11:19:20;;;;;;;29.23;13.15;;;;;;;21.63;14.60;99206.56;5013623;28;20033;-81
2021/12/22 11:24:40;;;;;;;26.27;11.70;;;;;;;21.00;15.16;99198.50;5007821;28;20046;-79
2021/12/22 11:27:08;;;;;;;24.07;11.93;;;;;;;20.64;15.53;99194.56;5004507;28;20046;-81
2021/12/22 11:29:37;;;;;;;31.52;16.85;;;;;;;20.30;15.63;99197.81;5014132;28;20042;-80
2021/12/22 11:32:05;;;;;;;25.85;12.38;;;;;;;19.91;16.00;99197.28;5007893;28;20040;-81
2021/12/22 11:34:35;;;;;;;27.63;13.75;;;;;;;20.17;15.97;99186.06;5014378;28;20091;-81
2021/12/22 11:37:03;;;;;;;31.20;14.48;;;;;;;20.37;15.60;99189.50;5014239;28;20116;-80
2021/12/22 11:39:30;;;;;;;27.40;13.68;;;;;;;20.42;15.37;99180.81;5030202;28;20034;-79
2021/12/22 11:41:58;;;;;;;25.80;11.20;;;;;;;20.86;15.18;99189.19;5014676;28;20052;-80
2021/12/22 11:44:26;;;;;;;29.92;13.43;;;;;;;21.03;14.74;99180.13;5014227;28;20026;-80
2021/12/22 11:46:55;;;;;;;25.33;11.23;;;;;;;20.50;15.08;99183.28;5011451;28;20038;-79